Terminal Aerodrome Forecast
Issued by NWS Mt. Holly, NJ

Home | Current Version | Previous Version | Text Only | Print | Product List | Glossary On
Versions: 1 2 3 4 5 6 7 8 9 10 11 12 13 14 15 16 17 18 19 20 21
590
FTUS41 KPHI 240520
TAFPHL
TAF
KPHL 240520Z 2406/2512 VRB04KT P6SM SCT120
     FM241200 06004KT P6SM BKN100
     FM241600 07008KT P6SM BKN100
     FM250000 07012KT P6SM -RA OVC070
     FM250200 07014KT 6SM -RA BR OVC030
     FM250400 06014KT 6SM -RA BR OVC015
     FM250600 06014KT 5SM -RA BR OVC008=

USA.gov is the U.S. government's official web portal to all federal, state and local government web resources and services.